Time;durP1;ratioP1;P1;durP2;ratioP2;P2;SDS_P1;SDS_P2;PMS_P1;PMS_P2;Temp;Humidity;BMP_temperature;BMP_pressure;BME280_temperature;BME280_humidity;BME280_pressure;Samples;Min_cycle;Max_cycle;Signal;HPM_P1;HPM_P2
2023/03/23 00:02:25;;;;;;;7.15;4.68;;;15.80;85.90;;;;;;4125672;28;20049;-67
2023/03/23 00:05:07;;;;;;;5.80;5.05;;;15.80;86.00;;;;;;4134229;28;20045;-67
2023/03/23 00:07:52;;;;;;;7.50;5.57;;;15.80;86.00;;;;;;4139120;28;20504;-67
2023/03/23 00:10:32;;;;;;;7.13;4.97;;;15.80;86.10;;;;;;4144400;28;20065;-67
2023/03/23 00:13:12;;;;;;;6.32;5.75;;;15.80;86.10;;;;;;4144791;28;20053;-67
2023/03/23 00:15:54;;;;;;;6.10;5.03;;;15.80;86.20;;;;;;4144785;28;20048;-67
2023/03/23 00:18:35;;;;;;;6.05;5.30;;;15.80;86.30;;;;;;4129357;28;20053;-67
2023/03/23 00:21:15;;;;;;;7.30;5.25;;;15.70;86.20;;;;;;4129654;28;20045;-67
2023/03/23 00:23:55;;;;;;;7.95;5.57;;;15.80;86.30;;;;;;4136205;28;20483;-67
2023/03/23 00:26:35;;;;;;;4.90;4.50;;;15.80;86.40;;;;;;4144832;28;20124;-68
2023/03/23 00:29:18;;;;;;;6.55;5.20;;;15.80;86.20;;;;;;4158837;28;20484;-68
2023/03/23 00:31:59;;;;;;;5.28;4.78;;;15.80;86.20;;;;;;4149524;28;20072;-67
2023/03/23 00:34:41;;;;;;;7.20;4.53;;;15.80;86.10;;;;;;4155919;28;20185;-68
2023/03/23 00:37:21;;;;;;;4.93;4.43;;;15.80;86.00;;;;;;4153423;28;20069;-67
2023/03/23 00:40:01;;;;;;;6.28;4.25;;;15.90;86.00;;;;;;4144480;28;20052;-67
2023/03/23 00:42:40;;;;;;;4.60;4.20;;;15.90;86.00;;;;;;4133194;28;20504;-67
2023/03/23 00:45:21;;;;;;;9.25;4.30;;;15.90;86.00;;;;;;4144032;28;20044;-67
2023/03/23 00:48:04;;;;;;;4.95;4.38;;;15.90;85.90;;;;;;4151633;28;20056;-67
2023/03/23 00:50:43;;;;;;;5.78;4.70;;;15.90;85.90;;;;;;4157735;28;20075;-67
2023/03/23 00:53:23;;;;;;;6.05;4.78;;;15.90;85.90;;;;;;4116666;28;20126;-67
2023/03/23 00:56:03;;;;;;;6.80;4.47;;;15.90;85.90;;;;;;4127918;28;20080;-67
2023/03/23 00:58:43;;;;;;;7.63;5.32;;;15.90;85.90;;;;;;4116462;28;20057;-69
2023/03/23 01:01:23;;;;;;;5.43;4.47;;;15.90;85.80;;;;;;4124929;28;20064;-67
2023/03/23 01:04:05;;;;;;;6.47;4.57;;;15.90;85.70;;;;;;4127595;28;20108;-67
2023/03/23 01:06:50;;;;;;;5.22;3.90;;;16.00;85.80;;;;;;4133562;28;20056;-67
2023/03/23 01:09:30;;;;;;;4.13;3.72;;;16.00;85.80;;;;;;4128577;28;20549;-67
2023/03/23 01:12:10;;;;;;;4.32;3.30;;;16.00;85.70;;;;;;4144491;28;20056;-67
2023/03/23 01:14:49;;;;;;;4.75;3.15;;;16.10;85.60;;;;;;4144681;28;20053;-67
2023/03/23 01:17:30;;;;;;;2.75;2.55;;;16.10;85.30;;;;;;4141337;28;20056;-67
2023/03/23 01:20:12;;;;;;;2.42;2.22;;;16.20;85.90;;;;;;4139411;28;20435;-67
2023/03/23 01:22:52;;;;;;;2.58;2.38;;;16.20;84.70;;;;;;4132670;28;20053;-67
2023/03/23 01:25:36;;;;;;;2.15;1.80;;;16.20;84.60;;;;;;4144602;28;20107;-66
2023/03/23 01:28:17;;;;;;;1.30;1.20;;;16.20;84.40;;;;;;4143769;28;20048;-67
2023/03/23 01:31:00;;;;;;;1.58;1.35;;;16.20;84.30;;;;;;4135709;28;20065;-67
2023/03/23 01:33:41;;;;;;;1.70;1.60;;;16.30;84.20;;;;;;4129067;28;20057;-67
2023/03/23 01:36:26;;;;;;;1.90;1.80;;;16.30;84.10;;;;;;4129142;28;20053;-67
2023/03/23 01:39:07;;;;;;;2.78;2.25;;;16.30;83.80;;;;;;4138743;28;20057;-67
2023/03/23 01:41:48;;;;;;;3.42;2.65;;;16.40;83.80;;;;;;4116098;28;20049;-67
2023/03/23 01:45:09;;;;;;;2.78;2.42;;;16.40;83.70;;;;;;4103240;28;20050;-67
2023/03/23 01:47:53;;;;;;;4.97;3.30;;;16.40;83.50;;;;;;4120434;28;20052;-66
2023/03/23 01:50:40;;;;;;;4.97;3.65;;;16.40;83.70;;;;;;4128962;28;20176;-66
2023/03/23 01:53:22;;;;;;;4.30;3.35;;;16.40;83.70;;;;;;4133283;28;20053;-66
2023/03/23 01:56:03;;;;;;;3.85;3.40;;;16.40;83.70;;;;;;4149637;28;20049;-67
2023/03/23 01:58:43;;;;;;;4.30;3.60;;;16.40;83.70;;;;;;4115742;28;20107;-67
2023/03/23 02:01:25;;;;;;;4.75;3.80;;;16.40;83.70;;;;;;4115972;28;20555;-67
2023/03/23 02:04:07;;;;;;;6.95;4.65;;;16.40;83.80;;;;;;4119682;28;20115;-67
2023/03/23 02:06:49;;;;;;;6.50;3.40;;;16.40;83.80;;;;;;4130529;28;20100;-67
2023/03/23 02:09:34;;;;;;;5.57;3.67;;;16.30;83.80;;;;;;4126552;28;20053;-67
2023/03/23 02:12:13;;;;;;;4.22;3.40;;;16.30;84.00;;;;;;4134559;28;20065;-65
2023/03/23 02:14:54;;;;;;;4.45;3.33;;;16.30;83.90;;;;;;4124949;28;20451;-65
2023/03/23 02:17:41;;;;;;;3.35;3.03;;;16.30;84.00;;;;;;4123602;28;20053;-66
2023/03/23 02:20:39;;;;;;;5.63;3.13;;;16.30;84.00;;;;;;4100315;28;20105;-66
2023/03/23 02:23:40;;;;;;;4.15;2.63;;;16.30;84.00;;;;;;4114926;28;20054;-66
2023/03/23 02:26:36;;;;;;;3.20;2.70;;;16.30;84.00;;;;;;4138817;28;20512;-65
2023/03/23 02:29:42;;;;;;;6.45;3.50;;;16.30;84.00;;;;;;4111104;28;20058;-65
2023/03/23 02:32:40;;;;;;;2.85;2.53;;;16.40;84.00;;;;;;4111673;28;20058;-66
2023/03/23 02:35:25;;;;;;;4.20;3.25;;;16.40;83.70;;;;;;4137603;28;20062;-65
2023/03/23 02:38:10;;;;;;;6.10;3.00;;;16.40;83.40;;;;;;4123152;28;20053;-65
2023/03/23 02:40:51;;;;;;;4.10;2.97;;;16.50;83.40;;;;;;4129843;28;20057;-65
2023/03/23 02:43:36;;;;;;;5.57;2.88;;;16.50;83.40;;;;;;4123261;28;20512;-65
2023/03/23 02:46:17;;;;;;;4.65;2.45;;;16.50;83.30;;;;;;4123188;28;20192;-66
2023/03/23 02:49:00;;;;;;;5.47;2.78;;;16.50;83.20;;;;;;4114864;28;20053;-66
2023/03/23 02:51:44;;;;;;;5.00;2.80;;;16.50;83.20;;;;;;4112692;28;20133;-66
2023/03/23 02:54:25;;;;;;;7.20;2.85;;;16.50;83.10;;;;;;4126648;28;20556;-67
2023/03/23 02:57:05;;;;;;;;;;;16.50;82.90;;;;;;4106761;28;20053;-67
2023/03/23 02:59:46;;;;;;;3.33;2.45;;;16.50;82.90;;;;;;4129018;28;19933;-67
2023/03/23 03:02:27;;;;;;;;;;;16.50;83.10;;;;;;4142852;28;20068;-67
2023/03/23 03:05:18;;;;;;;4.55;2.97;;;16.40;83.10;;;;;;4143686;28;19929;-67
2023/03/23 03:08:07;;;;;;;3.88;2.40;;;16.40;83.30;;;;;;4145702;28;20069;-67
2023/03/23 03:10:53;;;;;;;4.22;2.53;;;16.40;83.20;;;;;;4158268;28;20049;-67
2023/03/23 03:13:45;;;;;;;3.80;2.50;;;16.30;83.40;;;;;;4121272;28;20094;-67
2023/03/23 03:16:30;;;;;;;4.80;2.35;;;16.30;83.50;;;;;;4123355;28;20073;-67
2023/03/23 03:19:14;;;;;;;2.75;2.53;;;16.30;84.60;;;;;;4127880;28;20089;-67
2023/03/23 03:21:57;;;;;;;5.78;2.75;;;16.30;83.80;;;;;;4103511;28;20057;-66
2023/03/23 03:24:49;;;;;;;4.65;2.63;;;16.40;83.70;;;;;;4132459;28;20561;-66
2023/03/23 03:27:31;;;;;;;2.50;2.25;;;16.40;84.40;;;;;;4129564;28;20196;-66
2023/03/23 03:30:30;;;;;;;4.18;2.17;;;16.40;83.30;;;;;;4125105;28;20078;-66
2023/03/23 03:33:12;;;;;;;4.53;2.42;;;16.40;83.30;;;;;;4125275;28;20056;-67
2023/03/23 03:35:54;;;;;;;3.35;2.72;;;16.40;83.10;;;;;;4126138;28;20049;-67
2023/03/23 03:38:42;;;;;;;2.33;2.13;;;16.40;83.20;;;;;;4135236;28;20161;-67
2023/03/23 03:41:24;;;;;;;5.93;2.97;;;16.40;83.00;;;;;;4103485;28;20054;-67
2023/03/23 03:44:06;;;;;;;5.20;2.20;;;16.40;83.30;;;;;;4125873;28;20103;-66
2023/03/23 03:46:46;;;;;;;2.63;2.35;;;16.40;83.30;;;;;;4125107;28;20508;-67
2023/03/23 03:49:26;;;;;;;3.92;2.17;;;16.50;83.10;;;;;;4129571;28;20077;-66
2023/03/23 03:52:07;;;;;;;;;;;16.50;82.90;;;;;;4139549;28;20057;-66
2023/03/23 03:54:51;;;;;;;4.50;2.30;;;16.50;82.90;;;;;;4125673;28;20347;-66
2023/03/23 03:57:33;;;;;;;2.40;2.20;;;16.50;83.10;;;;;;4131851;28;20095;-66
2023/03/23 04:00:19;;;;;;;2.53;2.13;;;16.50;83.00;;;;;;4109439;28;20744;-66
2023/03/23 04:03:01;;;;;;;3.05;2.35;;;16.50;83.00;;;;;;4129146;28;20371;-66
2023/03/23 04:06:00;;;;;;;4.03;1.92;;;16.50;82.80;;;;;;4142617;28;20057;-67
2023/03/23 04:08:41;;;;;;;6.53;2.10;;;16.50;82.80;;;;;;4134276;28;20073;-67
2023/03/23 04:11:21;;;;;;;3.05;2.40;;;16.50;82.80;;;;;;4141272;28;20052;-67
2023/03/23 04:14:02;;;;;;;5.05;2.85;;;16.50;82.90;;;;;;4115302;28;20158;-67
2023/03/23 04:16:56;;;;;;;5.03;2.42;;;16.40;82.90;;;;;;4124831;28;20062;-67
2023/03/23 04:19:37;;;;;;;3.70;3.22;;;16.50;82.90;;;;;;4136747;28;20075;-67
2023/03/23 04:22:17;;;;;;;5.07;2.95;;;16.50;82.80;;;;;;4121198;28;20099;-67
2023/03/23 04:25:00;;;;;;;5.68;2.70;;;16.50;82.90;;;;;;4124716;28;20189;-67
2023/03/23 04:27:45;;;;;;;3.30;3.00;;;16.50;82.90;;;;;;4099470;28;20058;-67
2023/03/23 04:30:31;;;;;;;3.72;2.40;;;16.50;82.80;;;;;;4119665;28;20057;-67
2023/03/23 04:33:16;;;;;;;5.55;3.22;;;16.50;83.10;;;;;;4121074;28;20053;-68
2023/03/23 04:36:02;;;;;;;3.33;1.73;;;16.50;83.30;;;;;;4131148;28;20057;-67
2023/03/23 04:38:54;;;;;;;0.70;0.60;;;16.50;83.10;;;;;;4134928;28;20084;-67
2023/03/23 04:41:36;;;;;;;0.40;0.32;;;16.50;83.00;;;;;;4141241;28;20678;-66
2023/03/23 04:44:27;;;;;;;0.37;0.37;;;16.50;82.90;;;;;;4131344;28;20053;-66
2023/03/23 04:47:22;;;;;;;0.40;0.40;;;16.60;82.70;;;;;;4140745;28;20399;-67
2023/03/23 04:50:10;;;;;;;1.67;0.60;;;16.60;82.60;;;;;;4123586;28;20146;-66
2023/03/23 04:52:53;;;;;;;2.10;0.70;;;16.60;82.40;;;;;;4142057;28;20057;-66
2023/03/23 04:55:36;;;;;;;1.08;1.00;;;16.60;82.40;;;;;;4146408;28;20068;-66
2023/03/23 04:58:17;;;;;;;0.82;0.80;;;16.60;82.20;;;;;;4160106;28;20203;-66
2023/03/23 05:01:07;;;;;;;1.58;1.05;;;16.50;82.20;;;;;;4161325;28;20067;-66
2023/03/23 05:03:55;;;;;;;1.98;0.90;;;16.50;83.20;;;;;;4152314;28;20121;-66
2023/03/23 05:06:35;;;;;;;1.45;1.02;;;16.50;82.80;;;;;;4132140;28;20045;-66
2023/03/23 05:09:30;;;;;;;1.20;1.10;;;16.50;82.80;;;;;;4142997;28;20499;-66
2023/03/23 05:12:11;;;;;;;2.55;1.17;;;16.40;83.00;;;;;;4132687;28;20057;-66
2023/03/23 05:15:02;;;;;;;;;;;16.40;83.00;;;;;;4140988;28;20052;-66
2023/03/23 05:17:44;;;;;;;1.73;1.25;;;16.50;83.00;;;;;;4135548;28;19929;-66
2023/03/23 05:20:30;;;;;;;3.28;1.70;;;16.50;82.70;;;;;;4122749;28;20833;-65
2023/03/23 05:23:17;;;;;;;3.55;1.75;;;16.50;82.50;;;;;;4139860;28;20049;-66
2023/03/23 05:26:02;;;;;;;4.82;1.73;;;16.50;82.40;;;;;;4149069;28;20824;-66
2023/03/23 05:28:42;;;;;;;4.93;1.95;;;16.50;82.60;;;;;;4139690;28;20057;-66
2023/03/23 05:31:31;;;;;;;4.22;1.73;;;16.50;82.60;;;;;;4144958;28;20061;-66
2023/03/23 05:34:11;;;;;;;3.55;1.58;;;16.50;83.60;;;;;;4159546;28;20060;-66
2023/03/23 05:37:03;;;;;;;4.50;1.80;;;16.40;82.90;;;;;;4122198;28;20497;-66
2023/03/23 05:39:55;;;;;;;5.38;1.90;;;16.40;82.90;;;;;;4112812;28;20493;-65
2023/03/23 05:42:48;;;;;;;7.95;1.70;;;16.40;83.80;;;;;;4110866;28;20100;-66
2023/03/23 05:45:34;;;;;;;5.13;1.80;;;16.40;82.80;;;;;;4127363;28;20046;-67
2023/03/23 05:48:14;;;;;;;5.82;2.35;;;16.50;83.60;;;;;;4132356;28;20053;-66
2023/03/23 05:50:54;;;;;;;5.07;1.48;;;16.50;82.50;;;;;;4141598;28;20068;-66
2023/03/23 05:53:38;;;;;;;4.88;1.58;;;16.50;82.80;;;;;;4131952;28;20084;-65
2023/03/23 05:56:19;;;;;;;9.68;2.85;;;16.50;82.80;;;;;;4131745;28;20127;-67
2023/03/23 05:59:21;;;;;;;8.32;2.05;;;16.50;82.70;;;;;;4125625;28;20520;-66
2023/03/23 06:02:05;;;;;;;10.80;2.10;;;16.60;82.60;;;;;;4128842;28;20057;-65
2023/03/23 06:04:48;;;;;;;;;;;16.60;82.50;;;;;;4129980;28;20124;-66
2023/03/23 06:07:40;;;;;;;10.70;2.58;;;16.50;82.40;;;;;;4109563;28;20422;-65
2023/03/23 06:10:23;;;;;;;11.02;2.47;;;16.50;82.60;;;;;;4144166;28;20064;-66
2023/03/23 06:13:10;;;;;;;6.88;2.22;;;16.50;82.50;;;;;;4159086;28;20524;-65
2023/03/23 06:15:58;;;;;;;6.55;2.08;;;16.50;82.50;;;;;;4158733;28;20404;-66
2023/03/23 06:19:02;;;;;;;7.82;2.40;;;16.60;82.40;;;;;;4137009;28;20754;-67
2023/03/23 06:21:45;;;;;;;11.52;2.65;;;16.60;82.40;;;;;;4127063;28;20133;-67
2023/03/23 06:24:34;;;;;;;11.55;2.42;;;16.60;82.50;;;;;;4124614;28;20053;-67
2023/03/23 06:27:17;;;;;;;16.25;3.30;;;16.60;82.40;;;;;;4123856;28;20119;-67
2023/03/23 06:29:58;;;;;;;8.27;2.30;;;16.60;82.10;;;;;;4118028;28;20053;-65
2023/03/23 06:32:39;;;;;;;8.02;2.28;;;16.60;82.10;;;;;;4158797;28;20056;-67
2023/03/23 06:35:23;;;;;;;12.60;2.53;;;16.60;82.20;;;;;;4125892;28;20621;-67
2023/03/23 06:38:32;;;;;;;10.80;3.72;;;16.60;82.50;;;;;;4126364;28;20053;-67
2023/03/23 06:41:12;;;;;;;10.32;2.65;;;16.50;83.70;;;;;;4127357;28;20065;-67
2023/03/23 06:43:53;;;;;;;11.20;2.85;;;16.50;83.20;;;;;;4126142;28;20057;-67
2023/03/23 06:46:38;;;;;;;13.80;2.63;;;16.50;84.40;;;;;;4137017;28;20057;-66
2023/03/23 06:49:31;;;;;;;8.93;2.25;;;16.50;83.40;;;;;;4141382;28;20443;-67
2023/03/23 06:52:24;;;;;;;14.38;2.70;;;16.60;83.40;;;;;;4130540;28;20052;-67
2023/03/23 06:55:05;;;;;;;7.65;2.13;;;16.50;83.00;;;;;;4127885;28;20052;-67
2023/03/23 06:57:45;;;;;;;7.85;2.13;;;16.50;82.70;;;;;;4119893;28;20058;-67
2023/03/23 07:00:27;;;;;;;8.80;2.35;;;16.60;82.50;;;;;;4114688;28;20058;-67
2023/03/23 07:03:08;;;;;;;7.80;1.60;;;16.60;82.20;;;;;;4127411;28;20173;-67
2023/03/23 07:05:49;;;;;;;4.78;1.45;;;16.50;82.00;;;;;;4125909;28;20053;-67
2023/03/23 07:08:33;;;;;;;4.72;1.77;;;16.50;82.10;;;;;;4126027;28;20189;-67
2023/03/23 07:11:13;;;;;;;7.68;1.67;;;16.50;82.10;;;;;;4126027;28;20053;-67
2023/03/23 07:13:53;;;;;;;6.50;1.35;;;16.50;82.00;;;;;;4129745;28;20500;-67
2023/03/23 07:16:35;;;;;;;7.75;1.90;;;16.40;82.30;;;;;;4141056;28;20087;-67
2023/03/23 07:19:15;;;;;;;5.95;1.50;;;16.40;82.40;;;;;;4124085;28;20397;-67
2023/03/23 07:21:56;;;;;;;5.63;1.42;;;16.40;82.50;;;;;;4120495;28;20050;-67
2023/03/23 07:24:37;;;;;;;6.60;1.70;;;16.40;82.30;;;;;;4141837;28;20053;-67
2023/03/23 07:27:28;;;;;;;6.72;2.08;;;16.50;82.00;;;;;;4122559;28;20057;-67
2023/03/23 07:30:12;;;;;;;10.23;2.13;;;16.50;82.10;;;;;;4158193;28;20041;-68
2023/03/23 07:32:53;;;;;;;7.83;2.30;;;16.50;81.10;;;;;;4151528;28;20061;-67
2023/03/23 07:35:33;;;;;;;12.07;3.05;;;16.50;81.10;;;;;;4130732;28;20052;-67
2023/03/23 07:38:19;;;;;;;10.63;2.85;;;16.60;81.20;;;;;;4130887;28;20049;-67
2023/03/23 07:41:02;;;;;;;14.07;4.25;;;16.60;81.20;;;;;;4141703;28;20053;-65
2023/03/23 07:43:44;;;;;;;13.15;2.58;;;16.70;81.30;;;;;;4126909;28;20467;-68
2023/03/23 07:46:24;;;;;;;17.35;3.33;;;16.80;81.40;;;;;;4141141;28;20056;-69
2023/03/23 07:49:12;;;;;;;25.63;3.63;;;16.80;80.90;;;;;;4131995;28;20129;-69
2023/03/23 07:52:02;;;;;;;8.73;2.80;;;16.80;80.90;;;;;;4152720;28;20073;-66
2023/03/23 07:54:43;;;;;;;13.32;2.97;;;16.80;80.80;;;;;;4141691;28;20052;-69
2023/03/23 07:57:38;;;;;;;19.90;4.13;;;16.70;80.90;;;;;;4135593;28;20061;-69
2023/03/23 08:00:23;;;;;;;17.27;3.65;;;16.80;81.30;;;;;;4130275;28;20135;-69
2023/03/23 08:03:06;;;;;;;20.48;5.65;;;16.70;81.30;;;;;;4130764;28;20049;-62
2023/03/23 08:06:08;;;;;;;14.07;3.67;;;16.70;81.60;;;;;;4157611;28;20068;-64
2023/03/23 08:09:07;;;;;;;16.73;4.05;;;16.70;82.20;;;;;;4124861;28;20454;-64
2023/03/23 08:12:13;;;;;;;16.77;3.40;;;16.70;82.30;;;;;;4126381;28;20198;-64
2023/03/23 08:15:14;;;;;;;15.18;3.25;;;16.70;82.20;;;;;;4112624;28;20462;-62
2023/03/23 08:18:19;;;;;;;17.77;3.65;;;16.60;82.10;;;;;;4125800;28;20049;-64
2023/03/23 08:21:20;;;;;;;24.25;4.53;;;16.60;82.40;;;;;;4156584;28;20072;-65
2023/03/23 08:24:19;;;;;;;15.23;3.55;;;16.60;83.10;;;;;;4141469;28;20091;-63
2023/03/23 08:27:22;;;;;;;12.25;3.03;;;16.60;82.70;;;;;;4133214;28;20068;-63
2023/03/23 08:30:22;;;;;;;15.45;4.55;;;16.50;82.60;;;;;;4140259;28;20073;-63
2023/03/23 08:33:09;;;;;;;19.85;3.88;;;16.50;82.80;;;;;;4132479;28;20069;-63
2023/03/23 08:36:15;;;;;;;16.10;3.78;;;16.50;82.80;;;;;;4134717;28;20112;-63
2023/03/23 08:39:23;;;;;;;12.13;3.22;;;16.40;82.70;;;;;;4128209;28;20061;-64
2023/03/23 08:42:15;;;;;;;13.52;3.10;;;16.40;82.90;;;;;;4123249;28;20081;-63
2023/03/23 08:45:31;;;;;;;10.45;2.78;;;16.40;83.10;;;;;;4095005;29;20097;-64
2023/03/23 08:48:28;;;;;;;19.35;3.85;;;16.40;83.30;;;;;;4129751;28;20054;-64
2023/03/23 08:51:35;;;;;;;14.32;3.83;;;16.30;83.40;;;;;;4123391;28;20129;-64
2023/03/23 08:54:46;;;;;;;12.50;3.03;;;16.30;83.40;;;;;;4139851;28;20192;-64
2023/03/23 08:57:46;;;;;;;18.98;4.07;;;16.30;83.20;;;;;;4142294;28;20119;-65
2023/03/23 09:00:50;;;;;;;22.25;4.95;;;16.30;83.40;;;;;;4148313;28;20564;-65
2023/03/23 09:03:50;;;;;;;18.88;3.92;;;16.30;83.40;;;;;;4154793;28;20107;-65
2023/03/23 09:06:49;;;;;;;23.83;4.00;;;16.30;83.50;;;;;;4147976;28;20060;-64
2023/03/23 09:09:29;;;;;;;14.83;3.97;;;16.30;84.60;;;;;;4151913;28;20175;-65
2023/03/23 09:12:10;;;;;;;22.27;4.32;;;16.30;83.40;;;;;;4155721;28;20053;-65
2023/03/23 09:14:50;;;;;;;14.75;3.42;;;16.30;82.80;;;;;;4133762;28;20099;-65
2023/03/23 09:17:31;;;;;;;18.58;3.80;;;16.30;82.80;;;;;;4141660;28;20053;-65
2023/03/23 09:20:13;;;;;;;19.45;5.10;;;16.30;82.80;;;;;;4142714;28;20049;-64
2023/03/23 09:22:54;;;;;;;18.33;5.20;;;16.30;82.90;;;;;;4147745;28;20639;-64
2023/03/23 09:25:34;;;;;;;;;;;16.30;82.90;;;;;;4148133;28;20045;-64
2023/03/23 09:28:15;;;;;;;14.75;4.05;;;16.30;82.80;;;;;;4155571;28;19954;-64
2023/03/23 09:30:57;;;;;;;19.05;4.10;;;16.40;83.10;;;;;;4144546;28;20065;-64
2023/03/23 09:33:37;;;;;;;19.15;4.43;;;16.40;83.70;;;;;;4150005;28;20529;-63
2023/03/23 09:36:20;;;;;;;14.68;3.90;;;16.40;82.80;;;;;;4130895;28;20053;-63
2023/03/23 09:39:00;;;;;;;16.50;3.22;;;16.40;82.40;;;;;;4124738;28;20100;-63
2023/03/23 09:42:13;;;;;;;20.23;4.75;;;16.40;82.30;;;;;;4141498;28;20508;-64
2023/03/23 09:45:06;;;;;;;16.17;3.75;;;16.40;82.10;;;;;;4125346;28;20107;-64
2023/03/23 09:47:57;;;;;;;9.27;2.95;;;16.40;82.50;;;;;;4124980;28;20196;-65
2023/03/23 09:50:41;;;;;;;23.83;4.57;;;16.40;82.20;;;;;;4127249;28;20073;-64
2023/03/23 09:53:26;;;;;;;17.98;3.45;;;16.40;82.60;;;;;;4147286;28;20119;-64
2023/03/23 09:56:12;;;;;;;16.73;4.22;;;16.40;82.40;;;;;;4129629;28;20069;-64
2023/03/23 09:58:56;;;;;;;26.02;5.10;;;16.40;82.40;;;;;;4151310;28;20408;-65
2023/03/23 10:01:44;;;;;;;21.25;4.93;;;16.50;82.80;;;;;;4156246;28;20078;-64
2023/03/23 10:04:35;;;;;;;23.95;5.95;;;16.50;82.60;;;;;;4148551;28;20513;-63
2023/03/23 10:07:18;;;;;;;24.98;5.25;;;16.60;82.60;;;;;;4126936;28;20065;-64
2023/03/23 10:10:02;;;;;;;25.15;6.65;;;16.60;82.30;;;;;;4126973;28;20061;-63
2023/03/23 10:12:50;;;;;;;21.95;5.00;;;16.60;82.40;;;;;;4141878;28;20057;-65
2023/03/23 10:15:33;;;;;;;24.65;5.50;;;16.60;81.60;;;;;;4148908;28;20123;-67
2023/03/23 10:18:18;;;;;;;18.50;3.80;;;16.70;81.30;;;;;;4144745;28;20057;-67
2023/03/23 10:21:00;;;;;;;27.63;6.38;;;16.70;81.40;;;;;;4149339;28;20053;-66
2023/03/23 10:23:48;;;;;;;19.63;4.78;;;16.70;81.40;;;;;;4143399;28;20184;-67
2023/03/23 10:26:43;;;;;;;28.23;4.20;;;16.80;81.50;;;;;;4148313;28;20448;-67
2023/03/23 10:29:27;;;;;;;20.38;5.03;;;16.80;81.30;;;;;;4146434;28;20052;-67
2023/03/23 10:32:13;;;;;;;17.25;4.78;;;16.80;81.00;;;;;;4126707;28;20053;-66
2023/03/23 10:34:58;;;;;;;17.25;3.95;;;16.80;81.10;;;;;;4148982;28;20060;-67
2023/03/23 10:37:42;;;;;;;18.23;5.07;;;16.90;80.30;;;;;;4151977;28;20171;-68
2023/03/23 10:40:24;;;;;;;26.85;4.45;;;16.90;80.70;;;;;;4156770;28;20060;-67
2023/03/23 10:43:04;;;;;;;17.90;4.13;;;16.90;81.20;;;;;;4152164;28;20056;-67
2023/03/23 10:45:49;;;;;;;20.75;4.45;;;16.90;80.00;;;;;;4146329;28;20060;-67
2023/03/23 10:48:32;;;;;;;17.05;3.83;;;16.90;80.20;;;;;;4148123;28;20064;-67
2023/03/23 10:51:14;;;;;;;23.90;5.13;;;16.90;80.10;;;;;;4149724;28;20115;-68
2023/03/23 10:53:59;;;;;;;18.02;4.63;;;16.90;80.40;;;;;;4156321;28;20167;-67
2023/03/23 10:56:40;;;;;;;27.73;5.20;;;16.80;80.30;;;;;;4140829;28;20197;-67
2023/03/23 10:59:27;;;;;;;21.23;6.63;;;16.90;80.70;;;;;;4154532;28;20091;-67
2023/03/23 11:02:18;;;;;;;17.92;4.40;;;16.90;81.10;;;;;;4150394;28;20057;-66
2023/03/23 11:05:03;;;;;;;19.90;3.50;;;16.90;80.90;;;;;;4149087;28;20064;-67
2023/03/23 11:07:51;;;;;;;15.52;3.78;;;16.90;80.70;;;;;;4152430;28;20060;-67
2023/03/23 11:10:38;;;;;;;17.00;3.55;;;17.00;80.80;;;;;;4150037;28;20465;-67
2023/03/23 11:13:20;;;;;;;10.20;3.00;;;17.00;80.50;;;;;;4142907;28;20135;-65
2023/03/23 11:16:01;;;;;;;16.83;3.00;;;17.00;80.80;;;;;;4141204;28;20044;-68
2023/03/23 11:18:43;;;;;;;11.23;2.97;;;17.00;79.80;;;;;;4143222;28;20064;-69
2023/03/23 11:21:25;;;;;;;16.20;3.35;;;17.00;79.70;;;;;;4128602;28;20052;-68
2023/03/23 11:24:09;;;;;;;12.95;3.17;;;17.10;80.20;;;;;;4146589;28;20503;-64
2023/03/23 11:26:48;;;;;;;16.17;3.92;;;17.10;80.20;;;;;;4141660;28;20106;-65
2023/03/23 11:29:31;;;;;;;15.25;3.75;;;17.10;79.90;;;;;;4149605;28;20040;-64
2023/03/23 11:32:15;;;;;;;14.80;3.83;;;17.10;79.70;;;;;;4153291;28;20048;-64
2023/03/23 11:34:59;;;;;;;14.20;3.67;;;17.10;79.60;;;;;;4146028;28;20061;-65
2023/03/23 11:37:43;;;;;;;9.88;2.55;;;17.10;79.60;;;;;;4140260;28;20172;-64
2023/03/23 11:40:27;;;;;;;14.50;3.70;;;17.10;79.00;;;;;;4142050;28;20998;-65
2023/03/23 11:43:11;;;;;;;13.77;3.53;;;17.20;79.10;;;;;;4139895;28;20123;-64
2023/03/23 11:45:59;;;;;;;10.85;3.17;;;17.20;79.20;;;;;;4147034;28;20063;-64
2023/03/23 11:48:45;;;;;;;11.23;3.63;;;17.20;78.90;;;;;;4132597;28;20456;-64
2023/03/23 11:51:31;;;;;;;13.60;2.90;;;17.20;79.70;;;;;;4148060;28;20175;-65
2023/03/23 11:54:17;;;;;;;7.85;2.70;;;17.20;78.40;;;;;;4145161;28;20114;-64
2023/03/23 11:56:59;;;;;;;22.45;3.28;;;17.20;78.40;;;;;;4142174;28;20065;-64
2023/03/23 11:59:40;;;;;;;15.43;3.10;;;17.20;78.80;;;;;;4139574;28;20131;-64
2023/03/23 12:02:39;;;;;;;11.70;3.10;;;17.20;78.90;;;;;;4139720;28;20212;-64
2023/03/23 12:05:40;;;;;;;16.50;3.25;;;17.20;78.40;;;;;;4156681;28;20056;-64
2023/03/23 12:08:32;;;;;;;12.40;3.47;;;17.20;78.80;;;;;;4158030;28;20048;-64
2023/03/23 12:11:20;;;;;;;13.55;2.72;;;17.20;78.50;;;;;;4136489;28;20081;-64
2023/03/23 12:14:15;;;;;;;10.32;3.25;;;17.20;78.10;;;;;;4128941;28;20534;-64
2023/03/23 12:17:05;;;;;;;12.35;2.50;;;17.20;78.90;;;;;;4142068;28;20124;-64
2023/03/23 12:19:52;;;;;;;8.45;2.50;;;17.20;78.70;;;;;;4142575;28;20061;-65
2023/03/23 12:22:43;;;;;;;12.30;2.53;;;17.20;78.30;;;;;;4143550;28;20496;-64
2023/03/23 12:25:55;;;;;;;8.52;2.80;;;17.20;78.30;;;;;;4155255;28;20111;-65
2023/03/23 12:29:00;;;;;;;6.15;2.13;;;17.10;77.50;;;;;;4158279;28;20423;-65
2023/03/23 12:31:50;;;;;;;9.85;2.50;;;17.20;79.20;;;;;;4150946;28;20115;-64
2023/03/23 12:34:42;;;;;;;13.90;2.65;;;17.20;78.70;;;;;;4144004;28;20060;-65
2023/03/23 12:37:37;;;;;;;12.18;2.42;;;17.20;78.40;;;;;;4143273;28;20053;-65
2023/03/23 12:40:42;;;;;;;12.32;2.67;;;17.20;78.60;;;;;;4136568;28;20042;-65
2023/03/23 12:43:29;;;;;;;4.90;1.83;;;17.20;77.70;;;;;;4149530;28;20064;-64
2023/03/23 12:46:36;;;;;;;8.15;1.95;;;17.20;78.00;;;;;;4130114;28;20428;-63
2023/03/23 12:49:21;;;;;;;9.00;2.42;;;17.20;78.10;;;;;;4129413;28;20057;-63
2023/03/23 12:52:11;;;;;;;8.02;2.53;;;17.20;78.00;;;;;;4128184;28;20566;-69
2023/03/23 12:54:55;;;;;;;9.45;2.20;;;17.20;77.50;;;;;;4127833;28;20600;-69
2023/03/23 12:57:40;;;;;;;9.30;1.90;;;17.30;77.40;;;;;;4143131;28;20057;-69
2023/03/23 13:00:24;;;;;;;8.00;2.33;;;17.20;79.40;;;;;;4142503;28;20180;-68
2023/03/23 13:03:18;;;;;;;10.48;2.40;;;17.30;78.10;;;;;;4143276;28;20061;-68
2023/03/23 13:06:08;;;;;;;12.52;2.78;;;17.20;77.70;;;;;;4141536;28;20188;-69
2023/03/23 13:08:54;;;;;;;9.80;2.33;;;17.30;78.80;;;;;;4143228;28;20056;-69
2023/03/23 13:11:36;;;;;;;11.32;2.60;;;17.30;78.50;;;;;;4143126;28;20485;-69
2023/03/23 13:14:36;;;;;;;7.15;1.85;;;17.30;78.00;;;;;;4142931;28;20060;-69
2023/03/23 13:17:28;;;;;;;9.57;2.55;;;17.30;77.30;;;;;;4140265;28;20500;-69
2023/03/23 13:20:42;;;;;;;9.80;1.90;;;17.30;77.20;;;;;;4142768;28;22348;-69
2023/03/23 13:23:25;;;;;;;9.82;2.35;;;17.30;76.40;;;;;;4125112;28;20517;-69
2023/03/23 13:26:09;;;;;;;13.30;3.80;;;17.30;77.10;;;;;;4142728;28;20053;-69
2023/03/23 13:28:56;;;;;;;6.93;2.45;;;17.30;76.80;;;;;;4127531;28;20509;-69
2023/03/23 13:31:39;;;;;;;12.10;2.85;;;17.30;76.20;;;;;;4126750;28;20061;-70
2023/03/23 13:34:21;;;;;;;14.00;2.58;;;17.30;75.80;;;;;;4129412;28;20112;-70
2023/03/23 13:37:03;;;;;;;12.85;2.33;;;17.30;75.80;;;;;;4142977;28;20056;-69
2023/03/23 13:39:53;;;;;;;14.93;3.33;;;17.30;76.40;;;;;;4145628;28;20052;-69
2023/03/23 13:42:35;;;;;;;13.05;3.42;;;17.30;76.50;;;;;;4141246;28;20056;-65
2023/03/23 13:45:22;;;;;;;15.15;3.53;;;17.30;76.60;;;;;;4143635;28;20083;-64
2023/03/23 13:48:18;;;;;;;13.05;2.63;;;17.30;75.80;;;;;;4142619;28;20093;-64
2023/03/23 13:51:03;;;;;;;11.15;2.58;;;17.30;76.90;;;;;;4151121;28;20068;-64
2023/03/23 13:53:46;;;;;;;12.27;2.65;;;17.30;76.80;;;;;;4150891;28;20064;-64
2023/03/23 13:56:37;;;;;;;11.90;3.28;;;17.30;76.40;;;;;;4126336;28;20056;-63
2023/03/23 13:59:29;;;;;;;15.85;3.25;;;17.30;76.10;;;;;;4126572;28;20374;-65
2023/03/23 14:02:31;;;;;;;12.55;2.63;;;17.30;76.70;;;;;;4130725;28;20057;-64
2023/03/23 14:05:28;;;;;;;10.93;3.33;;;17.30;75.90;;;;;;4141706;28;20176;-64
2023/03/23 14:08:26;;;;;;;12.18;2.92;;;17.30;77.20;;;;;;4151655;28;20060;-64
2023/03/23 14:11:13;;;;;;;11.38;2.80;;;17.30;76.40;;;;;;4144043;28;20088;-65
2023/03/23 14:14:04;;;;;;;11.52;2.70;;;17.30;77.20;;;;;;4146287;28;20602;-64
2023/03/23 14:16:45;;;;;;;18.10;3.28;;;17.30;77.60;;;;;;4150536;28;20064;-64
2023/03/23 14:19:28;;;;;;;15.85;3.00;;;17.30;77.50;;;;;;4141903;28;20084;-64
2023/03/23 14:22:19;;;;;;;8.00;2.10;;;17.30;77.30;;;;;;4157049;28;20172;-64
2023/03/23 14:25:08;;;;;;;16.60;3.35;;;17.40;76.60;;;;;;4146839;28;20065;-64